sensor_id;sensor_type;location;lat;lon;timestamp;pressure;altitude;pressure_sealevel;temperature;humidity
77023;BME280;65952;51.440;-2.054;2023-12-20T00:01:26;100988.06;;;8.57;66.30
77023;BME280;65952;51.440;-2.054;2023-12-20T00:03:52;100990.75;;;8.67;65.90
77023;BME280;65952;51.440;-2.054;2023-12-20T00:06:17;100990.75;;;8.67;65.50
77023;BME280;65952;51.440;-2.054;2023-12-20T00:08:42;100981.34;;;8.63;65.55
77023;BME280;65952;51.440;-2.054;2023-12-20T00:11:09;100982.38;;;8.41;66.56
77023;BME280;65952;51.440;-2.054;2023-12-20T00:13:34;100968.91;;;8.52;66.38
77023;BME280;65952;51.440;-2.054;2023-12-20T00:16:00;100979.78;;;8.20;67.25
77023;BME280;65952;51.440;-2.054;2023-12-20T00:18:25;100978.09;;;8.59;66.09
77023;BME280;65952;51.440;-2.054;2023-12-20T00:20:51;100981.53;;;8.40;66.52
77023;BME280;65952;51.440;-2.054;2023-12-20T00:23:16;100981.88;;;8.57;66.01
77023;BME280;65952;51.440;-2.054;2023-12-20T00:25:42;100985.25;;;8.49;66.19
77023;BME280;65952;51.440;-2.054;2023-12-20T00:28:07;100975.25;;;8.51;66.17
77023;BME280;65952;51.440;-2.054;2023-12-20T00:30:33;100975.25;;;8.51;66.18
77023;BME280;65952;51.440;-2.054;2023-12-20T00:32:58;100978.06;;;8.50;66.33
77023;BME280;65952;51.440;-2.054;2023-12-20T00:35:24;100978.22;;;8.58;65.84
77023;BME280;65952;51.440;-2.054;2023-12-20T00:37:49;100975.13;;;8.62;65.45
77023;BME280;65952;51.440;-2.054;2023-12-20T00:40:15;100970.88;;;8.60;66.01
77023;BME280;65952;51.440;-2.054;2023-12-20T00:42:41;100961.44;;;8.56;66.09
77023;BME280;65952;51.440;-2.054;2023-12-20T00:45:07;100956.25;;;8.64;65.88
77023;BME280;65952;51.440;-2.054;2023-12-20T00:47:32;100959.78;;;8.74;65.18
77023;BME280;65952;51.440;-2.054;2023-12-20T00:49:58;100961.03;;;8.70;65.37
77023;BME280;65952;51.440;-2.054;2023-12-20T00:52:24;100970.19;;;8.77;65.10
77023;BME280;65952;51.440;-2.054;2023-12-20T00:54:49;100967.81;;;8.74;65.05
77023;BME280;65952;51.440;-2.054;2023-12-20T00:57:15;100970.47;;;8.55;66.12
77023;BME280;65952;51.440;-2.054;2023-12-20T00:59:40;100977.38;;;8.67;65.29
77023;BME280;65952;51.440;-2.054;2023-12-20T01:02:06;100965.28;;;8.63;65.35
77023;BME280;65952;51.440;-2.054;2023-12-20T01:04:31;100972.59;;;8.71;64.96
77023;BME280;65952;51.440;-2.054;2023-12-20T01:06:56;100983.84;;;8.55;65.86
77023;BME280;65952;51.440;-2.054;2023-12-20T01:09:22;100991.72;;;8.47;66.08
77023;BME280;65952;51.440;-2.054;2023-12-20T01:11:51;100990.34;;;8.62;65.60
77023;BME280;65952;51.440;-2.054;2023-12-20T01:14:17;100990.19;;;8.64;65.44
77023;BME280;65952;51.440;-2.054;2023-12-20T01:16:42;100984.16;;;8.81;64.60
77023;BME280;65952;51.440;-2.054;2023-12-20T01:19:07;100981.31;;;8.73;64.85
77023;BME280;65952;51.440;-2.054;2023-12-20T01:21:33;100978.09;;;8.69;65.13
77023;BME280;65952;51.440;-2.054;2023-12-20T01:23:58;100968.66;;;8.55;65.23
77023;BME280;65952;51.440;-2.054;2023-12-20T01:26:24;100975.41;;;8.59;65.25
77023;BME280;65952;51.440;-2.054;2023-12-20T01:28:49;100973.72;;;8.68;65.14
77023;BME280;65952;51.440;-2.054;2023-12-20T01:31:14;100974.56;;;8.69;65.31
77023;BME280;65952;51.440;-2.054;2023-12-20T01:33:40;100964.44;;;8.72;64.90
77023;BME280;65952;51.440;-2.054;2023-12-20T01:36:05;100963.16;;;8.67;65.16
77023;BME280;65952;51.440;-2.054;2023-12-20T01:38:31;100970.34;;;8.76;64.85
77023;BME280;65952;51.440;-2.054;2023-12-20T01:40:57;100965.53;;;8.60;65.93
77023;BME280;65952;51.440;-2.054;2023-12-20T01:43:23;100959.91;;;8.73;65.54
77023;BME280;65952;51.440;-2.054;2023-12-20T01:45:48;100962.84;;;8.60;65.91
77023;BME280;65952;51.440;-2.054;2023-12-20T01:48:15;100959.13;;;8.41;66.80
77023;BME280;65952;51.440;-2.054;2023-12-20T01:50:41;100965.09;;;8.55;66.26
77023;BME280;65952;51.440;-2.054;2023-12-20T01:53:09;100958.50;;;8.49;66.34
77023;BME280;65952;51.440;-2.054;2023-12-20T01:55:39;100960.59;;;8.65;65.90
77023;BME280;65952;51.440;-2.054;2023-12-20T01:58:06;100966.41;;;8.60;65.98
77023;BME280;65952;51.440;-2.054;2023-12-20T02:00:33;100964.84;;;8.58;66.45
77023;BME280;65952;51.440;-2.054;2023-12-20T02:03:01;100962.84;;;8.50;66.49
77023;BME280;65952;51.440;-2.054;2023-12-20T02:05:27;100958.78;;;8.56;66.72
77023;BME280;65952;51.440;-2.054;2023-12-20T02:07:53;100957.81;;;8.67;66.51
77023;BME280;65952;51.440;-2.054;2023-12-20T02:10:19;100953.72;;;8.72;65.90
77023;BME280;65952;51.440;-2.054;2023-12-20T02:12:44;100960.06;;;8.91;65.37
77023;BME280;65952;51.440;-2.054;2023-12-20T02:15:09;100958.66;;;8.77;65.50
77023;BME280;65952;51.440;-2.054;2023-12-20T02:17:36;100953.16;;;8.88;65.24
77023;BME280;65952;51.440;-2.054;2023-12-20T02:20:01;100949.03;;;8.55;66.72
77023;BME280;65952;51.440;-2.054;2023-12-20T02:22:27;100936.97;;;8.60;66.45
77023;BME280;65952;51.440;-2.054;2023-12-20T02:24:52;100933.00;;;8.65;66.60
77023;BME280;65952;51.440;-2.054;2023-12-20T02:27:19;100944.69;;;8.73;65.92
77023;BME280;65952;51.440;-2.054;2023-12-20T02:29:46;100942.75;;;8.75;65.70
77023;BME280;65952;51.440;-2.054;2023-12-20T02:32:12;100940.31;;;8.72;66.12
77023;BME280;65952;51.440;-2.054;2023-12-20T02:34:38;100930.03;;;8.87;65.63
77023;BME280;65952;51.440;-2.054;2023-12-20T02:37:03;100940.75;;;8.77;65.94
77023;BME280;65952;51.440;-2.054;2023-12-20T02:39:28;100934.25;;;8.70;66.24
77023;BME280;65952;51.440;-2.054;2023-12-20T02:41:54;100934.25;;;8.51;66.42
77023;BME280;65952;51.440;-2.054;2023-12-20T02:44:19;100918.22;;;8.51;66.33
77023;BME280;65952;51.440;-2.054;2023-12-20T02:46:45;100923.84;;;8.67;65.81
77023;BME280;65952;51.440;-2.054;2023-12-20T02:49:10;100930.19;;;8.66;65.73
77023;BME280;65952;51.440;-2.054;2023-12-20T02:51:35;100933.38;;;8.40;66.47
77023;BME280;65952;51.440;-2.054;2023-12-20T02:54:04;100920.91;;;8.60;66.01
77023;BME280;65952;51.440;-2.054;2023-12-20T02:56:29;100927.78;;;8.53;66.37
77023;BME280;65952;51.440;-2.054;2023-12-20T02:58:54;100913.97;;;8.68;65.60
77023;BME280;65952;51.440;-2.054;2023-12-20T03:01:20;100909.19;;;8.71;65.51
77023;BME280;65952;51.440;-2.054;2023-12-20T03:03:45;100908.34;;;8.71;65.53
77023;BME280;65952;51.440;-2.054;2023-12-20T03:06:11;100914.00;;;8.58;66.10
77023;BME280;65952;51.440;-2.054;2023-12-20T03:08:36;100919.06;;;8.71;65.88
77023;BME280;65952;51.440;-2.054;2023-12-20T03:11:02;100926.53;;;8.67;65.95
77023;BME280;65952;51.440;-2.054;2023-12-20T03:13:27;100927.25;;;8.69;65.95
77023;BME280;65952;51.440;-2.054;2023-12-20T03:15:53;100932.72;;;8.68;66.24
77023;BME280;65952;51.440;-2.054;2023-12-20T03:18:18;100939.63;;;8.70;66.32
77023;BME280;65952;51.440;-2.054;2023-12-20T03:20:43;100941.59;;;8.68;66.47
77023;BME280;65952;51.440;-2.054;2023-12-20T03:23:09;100937.94;;;8.89;65.75
77023;BME280;65952;51.440;-2.054;2023-12-20T03:25:34;100949.91;;;8.94;65.87
77023;BME280;65952;51.440;-2.054;2023-12-20T03:28:00;100953.00;;;8.90;66.49
77023;BME280;65952;51.440;-2.054;2023-12-20T03:30:25;100932.00;;;8.95;66.10
77023;BME280;65952;51.440;-2.054;2023-12-20T03:32:51;100937.94;;;9.08;65.63
77023;BME280;65952;51.440;-2.054;2023-12-20T03:35:16;100950.56;;;9.36;64.67
77023;BME280;65952;51.440;-2.054;2023-12-20T03:37:42;100939.81;;;9.46;64.62
77023;BME280;65952;51.440;-2.054;2023-12-20T03:40:07;100937.03;;;9.37;64.44
77023;BME280;65952;51.440;-2.054;2023-12-20T03:42:33;100943.06;;;9.39;64.28
77023;BME280;65952;51.440;-2.054;2023-12-20T03:44:58;100929.16;;;9.26;64.73
77023;BME280;65952;51.440;-2.054;2023-12-20T03:47:23;100940.28;;;9.21;65.00
77023;BME280;65952;51.440;-2.054;2023-12-20T03:49:49;100929.31;;;9.15;65.48
77023;BME280;65952;51.440;-2.054;2023-12-20T03:52:14;100923.25;;;9.13;65.39
77023;BME280;65952;51.440;-2.054;2023-12-20T03:54:40;100916.44;;;9.28;65.17
77023;BME280;65952;51.440;-2.054;2023-12-20T03:57:07;100915.03;;;9.34;64.59
77023;BME280;65952;51.440;-2.054;2023-12-20T03:59:36;100912.50;;;9.32;64.79
77023;BME280;65952;51.440;-2.054;2023-12-20T04:02:03;100905.59;;;9.30;64.63
77023;BME280;65952;51.440;-2.054;2023-12-20T04:04:28;100905.63;;;9.10;65.38
77023;BME280;65952;51.440;-2.054;2023-12-20T04:06:53;100908.63;;;8.87;66.02
77023;BME280;65952;51.440;-2.054;2023-12-20T04:09:19;100886.63;;;9.03;65.45
77023;BME280;65952;51.440;-2.054;2023-12-20T04:11:44;100898.19;;;8.94;66.03
77023;BME280;65952;51.440;-2.054;2023-12-20T04:14:10;100896.88;;;9.18;65.43
77023;BME280;65952;51.440;-2.054;2023-12-20T04:16:35;100900.38;;;9.28;64.96
77023;BME280;65952;51.440;-2.054;2023-12-20T04:19:01;100888.69;;;9.19;65.64
77023;BME280;65952;51.440;-2.054;2023-12-20T04:21:27;100888.44;;;9.13;65.75
77023;BME280;65952;51.440;-2.054;2023-12-20T04:23:53;100880.69;;;9.09;65.69
77023;BME280;65952;51.440;-2.054;2023-12-20T04:26:18;100872.34;;;9.13;66.01
77023;BME280;65952;51.440;-2.054;2023-12-20T04:28:43;100875.03;;;9.13;65.97
77023;BME280;65952;51.440;-2.054;2023-12-20T04:31:09;100863.03;;;9.17;65.86
77023;BME280;65952;51.440;-2.054;2023-12-20T04:33:34;100874.38;;;8.91;66.97
77023;BME280;65952;51.440;-2.054;2023-12-20T04:35:59;100880.28;;;9.04;66.66
77023;BME280;65952;51.440;-2.054;2023-12-20T04:38:25;100881.38;;;9.11;66.43
77023;BME280;65952;51.440;-2.054;2023-12-20T04:40:51;100888.25;;;9.24;66.22
77023;BME280;65952;51.440;-2.054;2023-12-20T04:43:17;100896.44;;;9.32;65.88
77023;BME280;65952;51.440;-2.054;2023-12-20T04:45:42;100900.19;;;9.39;65.87
77023;BME280;65952;51.440;-2.054;2023-12-20T04:48:07;100901.97;;;9.58;65.37
77023;BME280;65952;51.440;-2.054;2023-12-20T04:50:33;100903.41;;;9.53;65.46
77023;BME280;65952;51.440;-2.054;2023-12-20T04:52:58;100903.63;;;9.69;64.97
77023;BME280;65952;51.440;-2.054;2023-12-20T04:55:24;100900.78;;;9.71;64.82
77023;BME280;65952;51.440;-2.054;2023-12-20T04:57:49;100908.00;;;9.70;65.47
77023;BME280;65952;51.440;-2.054;2023-12-20T05:00:15;100910.34;;;9.73;65.25
77023;BME280;65952;51.440;-2.054;2023-12-20T05:02:40;100904.81;;;9.85;64.65
77023;BME280;65952;51.440;-2.054;2023-12-20T05:05:06;100905.66;;;9.85;64.87
77023;BME280;65952;51.440;-2.054;2023-12-20T05:07:32;100904.13;;;9.83;65.09
77023;BME280;65952;51.440;-2.054;2023-12-20T05:09:58;100893.47;;;9.91;64.99
77023;BME280;65952;51.440;-2.054;2023-12-20T05:12:24;100882.56;;;10.02;64.30
77023;BME280;65952;51.440;-2.054;2023-12-20T05:14:49;100885.16;;;9.94;64.93
77023;BME280;65952;51.440;-2.054;2023-12-20T05:17:14;100880.03;;;10.01;64.53
77023;BME280;65952;51.440;-2.054;2023-12-20T05:19:40;100869.16;;;9.74;65.25
77023;BME280;65952;51.440;-2.054;2023-12-20T05:22:05;100869.47;;;9.71;65.77
77023;BME280;65952;51.440;-2.054;2023-12-20T05:24:30;100876.75;;;9.79;65.50
77023;BME280;65952;51.440;-2.054;2023-12-20T05:26:56;100879.59;;;9.78;66.11
77023;BME280;65952;51.440;-2.054;2023-12-20T05:29:21;100882.84;;;9.81;65.98
77023;BME280;65952;51.440;-2.054;2023-12-20T05:31:47;100875.19;;;9.86;66.09
77023;BME280;65952;51.440;-2.054;2023-12-20T05:34:12;100877.00;;;9.86;66.67
77023;BME280;65952;51.440;-2.054;2023-12-20T05:36:38;100867.47;;;10.01;66.09
77023;BME280;65952;51.440;-2.054;2023-12-20T05:39:04;100860.81;;;10.05;65.56
77023;BME280;65952;51.440;-2.054;2023-12-20T05:41:33;100860.38;;;10.10;65.79
77023;BME280;65952;51.440;-2.054;2023-12-20T05:43:58;100857.69;;;10.10;65.69
77023;BME280;65952;51.440;-2.054;2023-12-20T05:46:24;100847.06;;;10.08;65.92
77023;BME280;65952;51.440;-2.054;2023-12-20T05:48:50;100854.22;;;10.18;65.34
77023;BME280;65952;51.440;-2.054;2023-12-20T05:51:17;100856.81;;;10.09;65.43
77023;BME280;65952;51.440;-2.054;2023-12-20T05:53:42;100843.94;;;9.95;66.05
77023;BME280;65952;51.440;-2.054;2023-12-20T05:56:07;100850.50;;;9.83;66.38
77023;BME280;65952;51.440;-2.054;2023-12-20T05:58:33;100856.88;;;10.00;65.97
77023;BME280;65952;51.440;-2.054;2023-12-20T06:00:58;100855.34;;;9.97;66.67
77023;BME280;65952;51.440;-2.054;2023-12-20T06:03:24;100845.38;;;9.89;66.38
77023;BME280;65952;51.440;-2.054;2023-12-20T06:05:49;100862.25;;;10.00;66.22
77023;BME280;65952;51.440;-2.054;2023-12-20T06:08:15;100870.25;;;9.82;67.01
77023;BME280;65952;51.440;-2.054;2023-12-20T06:10:40;100864.56;;;9.85;66.76
77023;BME280;65952;51.440;-2.054;2023-12-20T06:13:06;100870.22;;;9.91;66.60
77023;BME280;65952;51.440;-2.054;2023-12-20T06:15:32;100884.72;;;9.99;66.51
77023;BME280;65952;51.440;-2.054;2023-12-20T06:17:58;100878.66;;;9.97;66.46
77023;BME280;65952;51.440;-2.054;2023-12-20T06:20:23;100887.53;;;9.97;66.71
77023;BME280;65952;51.440;-2.054;2023-12-20T06:22:48;100886.69;;;9.97;66.72
77023;BME280;65952;51.440;-2.054;2023-12-20T06:25:14;100887.13;;;9.92;67.02
77023;BME280;65952;51.440;-2.054;2023-12-20T06:27:39;100881.16;;;9.98;66.74
77023;BME280;65952;51.440;-2.054;2023-12-20T06:30:06;100885.94;;;10.04;66.51
77023;BME280;65952;51.440;-2.054;2023-12-20T06:32:34;100880.88;;;10.01;66.50
77023;BME280;65952;51.440;-2.054;2023-12-20T06:34:59;100876.72;;;9.89;66.87
77023;BME280;65952;51.440;-2.054;2023-12-20T06:37:25;100877.13;;;9.66;68.16
77023;BME280;65952;51.440;-2.054;2023-12-20T06:39:50;100881.50;;;9.95;67.02
77023;BME280;65952;51.440;-2.054;2023-12-20T06:42:16;100879.53;;;10.15;66.68
77023;BME280;65952;51.440;-2.054;2023-12-20T06:44:41;100868.19;;;10.21;66.54
77023;BME280;65952;51.440;-2.054;2023-12-20T06:47:07;100879.25;;;10.08;66.60
77023;BME280;65952;51.440;-2.054;2023-12-20T06:49:33;100872.84;;;10.19;66.68
77023;BME280;65952;51.440;-2.054;2023-12-20T06:51:58;100881.59;;;10.21;66.36
77023;BME280;65952;51.440;-2.054;2023-12-20T06:54:24;100879.25;;;10.08;67.01
77023;BME280;65952;51.440;-2.054;2023-12-20T06:56:49;100882.44;;;10.22;66.75
77023;BME280;65952;51.440;-2.054;2023-12-20T06:59:14;100871.25;;;10.27;66.21
77023;BME280;65952;51.440;-2.054;2023-12-20T07:01:41;100863.75;;;10.30;66.15
77023;BME280;65952;51.440;-2.054;2023-12-20T07:04:06;100859.84;;;10.43;65.89
77023;BME280;65952;51.440;-2.054;2023-12-20T07:06:31;100847.66;;;10.30;65.96
77023;BME280;65952;51.440;-2.054;2023-12-20T07:08:57;100844.06;;;10.39;65.83
77023;BME280;65952;51.440;-2.054;2023-12-20T07:11:22;100844.44;;;10.27;66.17
77023;BME280;65952;51.440;-2.054;2023-12-20T07:13:48;100835.31;;;10.37;65.86
77023;BME280;65952;51.440;-2.054;2023-12-20T07:16:14;100840.84;;;10.36;66.04
77023;BME280;65952;51.440;-2.054;2023-12-20T07:18:40;100839.44;;;10.32;66.07
77023;BME280;65952;51.440;-2.054;2023-12-20T07:21:05;100839.72;;;10.29;66.41
77023;BME280;65952;51.440;-2.054;2023-12-20T07:23:33;100847.94;;;10.27;66.52
77023;BME280;65952;51.440;-2.054;2023-12-20T07:25:58;100842.91;;;10.42;66.07
77023;BME280;65952;51.440;-2.054;2023-12-20T07:28:24;100837.38;;;10.44;66.10
77023;BME280;65952;51.440;-2.054;2023-12-20T07:30:50;100842.66;;;10.35;66.45
77023;BME280;65952;51.440;-2.054;2023-12-20T07:33:15;100842.59;;;10.45;66.32
77023;BME280;65952;51.440;-2.054;2023-12-20T07:35:41;100838.84;;;10.56;65.98
77023;BME280;65952;51.440;-2.054;2023-12-20T07:38:06;100850.50;;;10.47;66.32
77023;BME280;65952;51.440;-2.054;2023-12-20T07:40:32;100848.44;;;10.40;66.53
77023;BME280;65952;51.440;-2.054;2023-12-20T07:42:57;100846.44;;;10.43;66.84
77023;BME280;65952;51.440;-2.054;2023-12-20T07:45:23;100857.56;;;10.48;66.79
77023;BME280;65952;51.440;-2.054;2023-12-20T07:47:49;100847.97;;;10.45;66.72
77023;BME280;65952;51.440;-2.054;2023-12-20T07:50:15;100854.97;;;10.38;66.82
77023;BME280;65952;51.440;-2.054;2023-12-20T07:52:40;100850.00;;;10.15;67.89
77023;BME280;65952;51.440;-2.054;2023-12-20T07:55:06;100859.47;;;10.55;66.79
77023;BME280;65952;51.440;-2.054;2023-12-20T07:57:32;100859.63;;;10.54;66.67
77023;BME280;65952;51.440;-2.054;2023-12-20T07:59:57;100875.88;;;10.70;66.12
77023;BME280;65952;51.440;-2.054;2023-12-20T08:02:23;100879.53;;;10.87;65.70
77023;BME280;65952;51.440;-2.054;2023-12-20T08:04:48;100875.78;;;10.80;66.03
77023;BME280;65952;51.440;-2.054;2023-12-20T08:07:13;100883.63;;;10.73;66.35
77023;BME280;65952;51.440;-2.054;2023-12-20T08:09:39;100872.13;;;10.63;66.61
77023;BME280;65952;51.440;-2.054;2023-12-20T08:12:05;100879.25;;;10.72;66.67
77023;BME280;65952;51.440;-2.054;2023-12-20T08:14:30;100887.47;;;10.71;66.41
77023;BME280;65952;51.440;-2.054;2023-12-20T08:16:56;100885.56;;;10.63;67.18
77023;BME280;65952;51.440;-2.054;2023-12-20T08:19:22;100880.09;;;10.73;66.80
77023;BME280;65952;51.440;-2.054;2023-12-20T08:21:47;100891.56;;;11.01;65.66
77023;BME280;65952;51.440;-2.054;2023-12-20T08:24:13;100890.22;;;11.05;65.56
77023;BME280;65952;51.440;-2.054;2023-12-20T08:26:38;100889.50;;;10.95;66.05
77023;BME280;65952;51.440;-2.054;2023-12-20T08:29:03;100885.19;;;11.02;65.74
77023;BME280;65952;51.440;-2.054;2023-12-20T08:31:29;100888.22;;;10.99;65.84
77023;BME280;65952;51.440;-2.054;2023-12-20T08:33:54;100890.78;;;11.09;65.67
77023;BME280;65952;51.440;-2.054;2023-12-20T08:36:21;100890.16;;;11.15;65.66
77023;BME280;65952;51.440;-2.054;2023-12-20T08:38:47;100883.94;;;11.15;65.59
77023;BME280;65952;51.440;-2.054;2023-12-20T08:41:13;100876.88;;;11.14;65.47
77023;BME280;65952;51.440;-2.054;2023-12-20T08:43:40;100865.50;;;11.20;65.48
77023;BME280;65952;51.440;-2.054;2023-12-20T08:46:06;100862.25;;;11.08;65.33
77023;BME280;65952;51.440;-2.054;2023-12-20T08:48:31;100874.03;;;11.15;65.41
77023;BME280;65952;51.440;-2.054;2023-12-20T08:50:56;100867.91;;;11.05;65.63
77023;BME280;65952;51.440;-2.054;2023-12-20T08:53:22;100876.34;;;11.10;65.95
77023;BME280;65952;51.440;-2.054;2023-12-20T08:55:48;100874.19;;;11.40;64.69
77023;BME280;65952;51.440;-2.054;2023-12-20T08:58:13;100879.53;;;11.66;64.49
77023;BME280;65952;51.440;-2.054;2023-12-20T09:00:39;100864.84;;;11.95;63.49
77023;BME280;65952;51.440;-2.054;2023-12-20T09:03:05;100862.94;;;12.47;61.34
77023;BME280;65952;51.440;-2.054;2023-12-20T09:05:30;100851.00;;;12.66;60.17
77023;BME280;65952;51.440;-2.054;2023-12-20T09:07:56;100857.03;;;12.43;61.08
77023;BME280;65952;51.440;-2.054;2023-12-20T09:10:21;100876.38;;;12.39;61.17
77023;BME280;65952;51.440;-2.054;2023-12-20T09:12:51;100866.25;;;12.08;62.48
77023;BME280;65952;51.440;-2.054;2023-12-20T09:15:17;100865.16;;;11.92;62.91
77023;BME280;65952;51.440;-2.054;2023-12-20T09:17:42;100853.38;;;11.85;63.02
77023;BME280;65952;51.440;-2.054;2023-12-20T09:20:09;100851.25;;;11.97;62.94
77023;BME280;65952;51.440;-2.054;2023-12-20T09:22:34;100856.78;;;12.03;62.80
77023;BME280;65952;51.440;-2.054;2023-12-20T09:25:02;100853.03;;;11.88;63.18
77023;BME280;65952;51.440;-2.054;2023-12-20T09:27:29;100853.19;;;11.86;63.38
77023;BME280;65952;51.440;-2.054;2023-12-20T09:29:55;100858.41;;;11.88;63.43
77023;BME280;65952;51.440;-2.054;2023-12-20T09:32:20;100861.88;;;12.15;62.71
77023;BME280;65952;51.440;-2.054;2023-12-20T09:34:47;100852.84;;;11.81;63.50
77023;BME280;65952;51.440;-2.054;2023-12-20T09:37:13;100856.47;;;11.64;64.55
77023;BME280;65952;51.440;-2.054;2023-12-20T09:39:38;100854.84;;;11.79;63.71
77023;BME280;65952;51.440;-2.054;2023-12-20T09:42:04;100844.72;;;12.08;63.24
77023;BME280;65952;51.440;-2.054;2023-12-20T09:44:31;100836.63;;;11.99;63.25
77023;BME280;65952;51.440;-2.054;2023-12-20T09:46:58;100830.06;;;12.02;63.41
77023;BME280;65952;51.440;-2.054;2023-12-20T09:49:27;100827.38;;;12.02;63.35
77023;BME280;65952;51.440;-2.054;2023-12-20T09:51:53;100845.69;;;11.98;63.58
77023;BME280;65952;51.440;-2.054;2023-12-20T09:54:20;100852.16;;;11.71;64.25
77023;BME280;65952;51.440;-2.054;2023-12-20T09:56:46;100847.31;;;11.83;64.04
77023;BME280;65952;51.440;-2.054;2023-12-20T09:59:12;100852.47;;;11.68;64.57
77023;BME280;65952;51.440;-2.054;2023-12-20T10:01:42;100863.91;;;11.70;64.69
77023;BME280;65952;51.440;-2.054;2023-12-20T10:04:09;100864.09;;;11.77;64.50
77023;BME280;65952;51.440;-2.054;2023-12-20T10:06:40;100870.88;;;11.89;64.32
77023;BME280;65952;51.440;-2.054;2023-12-20T10:09:06;100865.16;;;11.92;64.41
77023;BME280;65952;51.440;-2.054;2023-12-20T10:11:32;100862.63;;;11.91;64.07
77023;BME280;65952;51.440;-2.054;2023-12-20T10:14:00;100862.19;;;12.03;63.92
77023;BME280;65952;51.440;-2.054;2023-12-20T10:16:27;100855.03;;;11.78;64.53
77023;BME280;65952;51.440;-2.054;2023-12-20T10:18:55;100852.84;;;11.90;64.36
77023;BME280;65952;51.440;-2.054;2023-12-20T10:21:22;100857.75;;;11.94;64.19
77023;BME280;65952;51.440;-2.054;2023-12-20T10:23:51;100859.34;;;12.05;63.79
77023;BME280;65952;51.440;-2.054;2023-12-20T10:26:26;100856.72;;;11.87;64.16
77023;BME280;65952;51.440;-2.054;2023-12-20T10:29:10;100846.41;;;12.17;63.88
77023;BME280;65952;51.440;-2.054;2023-12-20T10:31:36;100842.84;;;12.08;64.18
77023;BME280;65952;51.440;-2.054;2023-12-20T10:34:04;100849.06;;;12.09;64.07
77023;BME280;65952;51.440;-2.054;2023-12-20T10:36:33;100851.47;;;12.28;63.15
77023;BME280;65952;51.440;-2.054;2023-12-20T10:38:59;100845.22;;;12.11;63.98
77023;BME280;65952;51.440;-2.054;2023-12-20T10:41:26;100837.31;;;12.10;63.72
77023;BME280;65952;51.440;-2.054;2023-12-20T10:43:54;100825.56;;;12.44;62.90
77023;BME280;65952;51.440;-2.054;2023-12-20T10:46:20;100828.94;;;12.46;62.93
77023;BME280;65952;51.440;-2.054;2023-12-20T10:48:45;100832.78;;;12.18;63.51
77023;BME280;65952;51.440;-2.054;2023-12-20T10:51:14;100816.94;;;11.99;64.57
77023;BME280;65952;51.440;-2.054;2023-12-20T10:53:42;100822.50;;;12.06;64.32
77023;BME280;65952;51.440;-2.054;2023-12-20T10:56:11;100819.53;;;12.42;63.50
77023;BME280;65952;51.440;-2.054;2023-12-20T10:58:41;100822.53;;;12.39;63.25
77023;BME280;65952;51.440;-2.054;2023-12-20T11:01:08;100808.06;;;12.23;63.76
77023;BME280;65952;51.440;-2.054;2023-12-20T11:03:35;100802.34;;;12.59;63.03
77023;BME280;65952;51.440;-2.054;2023-12-20T11:06:27;100789.72;;;12.43;63.04
77023;BME280;65952;51.440;-2.054;2023-12-20T11:09:03;100784.66;;;12.73;62.58
77023;BME280;65952;51.440;-2.054;2023-12-20T11:14:20;100768.47;;;12.90;62.12
77023;BME280;65952;51.440;-2.054;2023-12-20T11:16:47;100762.34;;;13.04;62.00
77023;BME280;65952;51.440;-2.054;2023-12-20T11:19:13;100766.63;;;12.74;62.65
77023;BME280;65952;51.440;-2.054;2023-12-20T11:21:41;100782.75;;;12.90;62.28
77023;BME280;65952;51.440;-2.054;2023-12-20T11:24:07;100779.06;;;12.91;62.43
77023;BME280;65952;51.440;-2.054;2023-12-20T11:26:33;100758.38;;;12.92;62.30
77023;BME280;65952;51.440;-2.054;2023-12-20T11:29:35;100758.56;;;12.82;62.35
77023;BME280;65952;51.440;-2.054;2023-12-20T11:32:03;100754.34;;;12.79;62.32
77023;BME280;65952;51.440;-2.054;2023-12-20T11:34:31;100751.69;;;12.38;63.48
77023;BME280;65952;51.440;-2.054;2023-12-20T11:36:59;100745.63;;;12.19;63.84
77023;BME280;65952;51.440;-2.054;2023-12-20T11:39:26;100731.47;;;12.59;63.35
77023;BME280;65952;51.440;-2.054;2023-12-20T11:42:05;100718.81;;;12.67;63.38
77023;BME280;65952;51.440;-2.054;2023-12-20T11:44:33;100704.72;;;12.57;63.28
77023;BME280;65952;51.440;-2.054;2023-12-20T11:46:58;100703.22;;;12.55;63.43
77023;BME280;65952;51.440;-2.054;2023-12-20T11:49:24;100702.38;;;12.54;63.52
77023;BME280;65952;51.440;-2.054;2023-12-20T11:51:50;100693.94;;;12.65;62.52
77023;BME280;65952;51.440;-2.054;2023-12-20T11:54:16;100700.09;;;12.82;62.52
77023;BME280;65952;51.440;-2.054;2023-12-20T11:56:42;100690.28;;;12.98;62.19
77023;BME280;65952;51.440;-2.054;2023-12-20T11:59:08;100688.84;;;13.19;61.93
77023;BME280;65952;51.440;-2.054;2023-12-20T12:01:34;100687.75;;;12.96;62.22
77023;BME280;65952;51.440;-2.054;2023-12-20T12:04:06;100704.31;;;12.85;62.45
77023;BME280;65952;51.440;-2.054;2023-12-20T12:06:32;100700.50;;;12.46;63.88
77023;BME280;65952;51.440;-2.054;2023-12-20T12:08:58;100681.94;;;12.76;63.30
77023;BME280;65952;51.440;-2.054;2023-12-20T12:11:24;100682.44;;;12.80;63.23
77023;BME280;65952;51.440;-2.054;2023-12-20T12:13:50;100681.59;;;12.79;63.30
77023;BME280;65952;51.440;-2.054;2023-12-20T12:16:19;100673.47;;;13.27;61.97
77023;BME280;65952;51.440;-2.054;2023-12-20T12:18:45;100663.88;;;12.93;62.34
77023;BME280;65952;51.440;-2.054;2023-12-20T12:21:18;100666.47;;;13.10;61.97
77023;BME280;65952;51.440;-2.054;2023-12-20T12:23:44;100668.06;;;13.27;61.53
77023;BME280;65952;51.440;-2.054;2023-12-20T12:26:10;100651.59;;;13.22;61.42
77023;BME280;65952;51.440;-2.054;2023-12-20T12:28:35;100656.28;;;13.28;61.71
77023;BME280;65952;51.440;-2.054;2023-12-20T12:31:00;100650.97;;;13.12;61.95
77023;BME280;65952;51.440;-2.054;2023-12-20T12:33:26;100643.19;;;13.17;61.49
77023;BME280;65952;51.440;-2.054;2023-12-20T12:35:52;100633.44;;;13.16;61.80
77023;BME280;65952;51.440;-2.054;2023-12-20T12:38:21;100627.25;;;13.30;61.22
77023;BME280;65952;51.440;-2.054;2023-12-20T12:40:46;100633.72;;;13.21;61.75
77023;BME280;65952;51.440;-2.054;2023-12-20T12:43:12;100646.50;;;13.27;61.52